Time;durP1;ratioP1;P1;durP2;ratioP2;P2;SDS_P1;SDS_P2;PMS_P1;PMS_P2;Temp;Humidity;BMP_temperature;BMP_pressure;BME280_temperature;BME280_humidity;BME280_pressure;Samples;Min_cycle;Max_cycle;Signal;HPM_P1;HPM_P2
2023/06/11 00:02:12;;;;;;;6.23;5.63;;;15.80;99.90;;;;;;4978339;28;20225;-90
2023/06/11 00:04:46;;;;;;;5.23;4.77;;;15.40;99.90;;;;;;4977412;28;20544;-91
2023/06/11 00:07:18;;;;;;;7.10;5.30;;;15.40;99.90;;;;;;4967358;28;20242;-90
2023/06/11 00:09:50;;;;;;;6.03;4.90;;;15.30;99.90;;;;;;4976180;28;20210;-90
2023/06/11 00:12:22;;;;;;;5.90;5.40;;;15.40;99.90;;;;;;4976148;28;20226;-89
2023/06/11 00:14:54;;;;;;;5.47;4.97;;;15.50;99.90;;;;;;4985053;28;20289;-91
2023/06/11 00:17:25;;;;;;;5.37;4.63;;;15.50;99.90;;;;;;4979326;28;20215;-90
2023/06/11 00:19:58;;;;;;;5.63;5.00;;;15.50;99.90;;;;;;4963606;28;20215;-91
2023/06/11 00:22:31;;;;;;;5.83;5.37;;;15.40;99.90;;;;;;4972800;28;20211;-91
2023/06/11 00:25:03;;;;;;;5.53;5.03;;;15.70;99.90;;;;;;4976463;28;20286;-89
2023/06/11 00:27:34;;;;;;;4.90;4.40;;;15.70;99.90;;;;;;4976764;28;20233;-90
2023/06/11 00:30:07;;;;;;;5.53;4.43;;;15.60;99.90;;;;;;4975417;28;20207;-91
2023/06/11 00:32:38;;;;;;;6.10;4.50;;;15.60;99.90;;;;;;4977312;28;20242;-91
2023/06/11 00:35:12;;;;;;;4.90;4.33;;;15.60;99.90;;;;;;4975269;28;20588;-90
2023/06/11 00:37:47;;;;;;;4.63;4.23;;;15.60;99.90;;;;;;4960221;28;20286;-90
2023/06/11 00:40:18;;;;;;;4.13;3.73;;;15.50;99.90;;;;;;4958335;29;20218;-90
2023/06/11 00:42:51;;;;;;;5.30;4.80;;;15.30;99.90;;;;;;4958668;28;20744;-91
2023/06/11 00:45:24;;;;;;;4.17;3.87;;;15.20;99.90;;;;;;4959394;28;20216;-91
2023/06/11 00:47:56;;;;;;;5.20;4.70;;;15.20;99.90;;;;;;4977091;28;20301;-91
2023/06/11 00:50:30;;;;;;;5.30;4.57;;;15.20;99.90;;;;;;4978309;28;20206;-90
2023/06/11 00:53:02;;;;;;;4.87;4.37;;;15.10;99.90;;;;;;4983793;28;20308;-90
2023/06/11 00:55:33;;;;;;;5.67;4.20;;;15.10;99.90;;;;;;4996412;28;20238;-91
2023/06/11 00:58:13;;;;;;;5.50;4.37;;;15.10;99.90;;;;;;4996215;28;20875;-91
2023/06/11 01:00:49;;;;;;;5.30;4.80;;;15.20;99.90;;;;;;4961241;28;20211;-91
2023/06/11 01:03:26;;;;;;;4.87;4.40;;;15.20;99.90;;;;;;4980610;28;20269;-91
2023/06/11 01:06:05;;;;;;;4.33;4.00;;;15.20;99.90;;;;;;4980473;28;20218;-90
2023/06/11 01:08:40;;;;;;;4.10;3.80;;;15.30;99.90;;;;;;4960657;29;20218;-91
2023/06/11 01:11:13;;;;;;;4.37;4.07;;;15.40;99.90;;;;;;4963647;28;20229;-91
2023/06/11 01:13:45;;;;;;;3.93;3.63;;;15.70;99.90;;;;;;4973727;28;20230;-90
2023/06/11 01:16:22;;;;;;;4.83;4.33;;;15.80;99.90;;;;;;4988693;28;20183;-90
2023/06/11 01:19:03;;;;;;;4.50;4.10;;;15.90;99.90;;;;;;4970935;28;20194;-89
2023/06/11 01:21:45;;;;;;;5.80;3.87;;;16.00;99.90;;;;;;4999761;28;20300;-90
2023/06/11 01:24:24;;;;;;;4.10;3.80;;;15.90;99.90;;;;;;4994453;28;20203;-91
2023/06/11 01:27:09;;;;;;;4.10;3.80;;;15.70;99.90;;;;;;4979847;28;20320;-91
2023/06/11 01:29:45;;;;;;;5.93;4.50;;;15.70;99.90;;;;;;4979945;28;20626;-91
2023/06/11 01:32:19;;;;;;;3.83;3.53;;;16.10;99.90;;;;;;4963439;28;20202;-89
2023/06/11 01:34:51;;;;;;;4.03;3.73;;;16.30;99.90;;;;;;4980770;28;20270;-90
2023/06/11 01:37:23;;;;;;;4.07;3.67;;;16.40;99.90;;;;;;4982310;28;20215;-90
2023/06/11 01:39:54;;;;;;;4.13;3.73;;;16.70;99.90;;;;;;4978834;28;20221;-92
2023/06/11 01:42:26;;;;;;;3.97;3.67;;;16.90;99.90;;;;;;4973416;28;20214;-91
2023/06/11 01:44:59;;;;;;;3.90;3.60;;;17.00;99.90;;;;;;4963735;28;20294;-91
2023/06/11 01:47:31;;;;;;;4.50;3.30;;;17.00;99.90;;;;;;4966489;28;20266;-91
2023/06/11 01:50:03;;;;;;;3.50;3.20;;;17.00;99.90;;;;;;4962709;28;20218;-91
2023/06/11 01:52:35;;;;;;;10.33;4.03;;;16.90;99.90;;;;;;4982339;28;20588;-90
2023/06/11 01:55:08;;;;;;;5.00;2.83;;;16.80;99.90;;;;;;4971403;28;20569;-91
2023/06/11 01:57:40;;;;;;;3.40;3.20;;;16.60;99.90;;;;;;4998438;28;20202;-91
2023/06/11 02:00:16;;;;;;;3.73;3.30;;;16.60;99.90;;;;;;4999182;28;20183;-91
2023/06/11 02:02:49;;;;;;;5.10;3.37;;;16.50;99.90;;;;;;4983966;28;20213;-91
2023/06/11 02:05:21;;;;;;;3.43;3.13;;;16.40;99.90;;;;;;4962151;29;20229;-91
2023/06/11 02:07:52;;;;;;;3.63;3.30;;;16.30;99.90;;;;;;4977993;28;20242;-91
2023/06/11 02:10:23;;;;;;;3.77;3.47;;;16.40;99.90;;;;;;4981287;28;20211;-91
2023/06/11 02:12:55;;;;;;;3.93;3.63;;;16.40;99.90;;;;;;4978724;28;20204;-91
2023/06/11 02:15:29;;;;;;;4.47;3.43;;;16.40;99.90;;;;;;4976123;28;20217;-91
2023/06/11 02:18:01;;;;;;;3.63;3.33;;;16.50;99.90;;;;;;4972363;28;20217;-92
2023/06/11 02:20:32;;;;;;;3.73;3.43;;;16.50;99.90;;;;;;4969513;28;20211;-94
2023/06/11 02:23:04;;;;;;;3.73;3.37;;;16.40;99.90;;;;;;4977208;28;20659;-93
2023/06/11 02:25:36;;;;;;;3.60;3.30;;;16.10;99.90;;;;;;4979265;28;20672;-92
2023/06/11 02:28:08;;;;;;;3.77;3.47;;;16.20;99.90;;;;;;4972663;28;20234;-92
2023/06/11 02:30:42;;;;;;;3.90;3.60;;;16.10;99.90;;;;;;4970824;28;20210;-91
2023/06/11 02:33:13;;;;;;;3.50;3.20;;;16.10;99.90;;;;;;4963334;28;20239;-89
2023/06/11 02:35:44;;;;;;;4.43;3.63;;;16.10;99.90;;;;;;4972015;28;20208;-88
2023/06/11 02:38:16;;;;;;;4.37;3.97;;;16.10;99.90;;;;;;4970976;28;20727;-89
2023/06/11 02:40:47;;;;;;;4.00;3.70;;;16.10;99.90;;;;;;4973785;28;20598;-89
2023/06/11 02:43:18;;;;;;;5.03;3.30;;;16.00;99.90;;;;;;4966409;28;20213;-88
2023/06/11 02:45:52;;;;;;;4.40;3.60;;;16.00;99.90;;;;;;4958514;28;20221;-87
2023/06/11 02:48:23;;;;;;;3.73;3.40;;;15.90;99.90;;;;;;4976108;28;20325;-87
2023/06/11 02:50:55;;;;;;;3.83;3.53;;;15.90;99.90;;;;;;4975517;28;20207;-88
2023/06/11 02:53:26;;;;;;;5.63;3.40;;;15.80;99.90;;;;;;4970976;28;20219;-88
2023/06/11 02:55:58;;;;;;;4.47;4.07;;;15.70;99.90;;;;;;4972596;28;20220;-87
2023/06/11 02:58:29;;;;;;;4.67;4.27;;;15.60;99.90;;;;;;4973369;28;20718;-90
2023/06/11 03:01:03;;;;;;;4.30;3.90;;;15.60;99.90;;;;;;4972560;28;20219;-89
2023/06/11 03:03:35;;;;;;;3.90;3.50;;;15.60;99.90;;;;;;4976045;28;20211;-90
2023/06/11 03:06:06;;;;;;;3.80;3.50;;;15.60;99.90;;;;;;4974367;28;20299;-89
2023/06/11 03:08:38;;;;;;;4.73;3.37;;;15.60;99.90;;;;;;4973159;28;20245;-91
2023/06/11 03:11:09;;;;;;;8.27;5.07;;;15.50;99.90;;;;;;4975395;28;20675;-90
2023/06/11 03:13:40;;;;;;;6.60;5.20;;;15.50;99.90;;;;;;4975830;28;20215;-89
2023/06/11 03:16:13;;;;;;;4.97;4.47;;;15.50;99.90;;;;;;4976336;28;20747;-89
2023/06/11 03:18:45;;;;;;;6.07;5.00;;;15.40;99.90;;;;;;4975329;28;20267;-89
2023/06/11 03:21:16;;;;;;;4.97;4.40;;;15.40;99.90;;;;;;4971461;28;20219;-89
2023/06/11 03:23:48;;;;;;;5.97;4.33;;;15.40;99.90;;;;;;4993380;28;20219;-90
2023/06/11 03:26:19;;;;;;;5.47;4.97;;;15.40;99.90;;;;;;4640169;28;9999814;-90
2023/06/11 03:28:50;;;;;;;4.60;4.20;;;15.30;99.90;;;;;;4974841;28;20550;-89
2023/06/11 03:31:25;;;;;;;4.70;4.20;;;15.30;99.90;;;;;;4969884;28;20245;-91
2023/06/11 03:33:57;;;;;;;5.73;4.63;;;15.20;99.90;;;;;;5038912;23;20293;-91
2023/06/11 03:36:28;;;;;;;5.07;4.57;;;15.20;99.90;;;;;;4959158;28;20229;-91
2023/06/11 03:38:59;;;;;;;4.97;4.37;;;15.10;99.90;;;;;;4968409;28;20226;-92
2023/06/11 03:41:33;;;;;;;5.27;4.77;;;15.10;99.90;;;;;;4976553;28;20234;-95
2023/06/11 03:44:05;;;;;;;5.27;4.87;;;15.10;99.90;;;;;;4975883;28;20294;-96
2023/06/11 03:46:39;;;;;;;6.03;5.20;;;15.10;99.90;;;;;;4978754;28;20217;-96
2023/06/11 03:49:11;;;;;;;5.17;4.70;;;15.10;99.90;;;;;;4967558;28;20254;-96
2023/06/11 03:51:42;;;;;;;5.20;4.60;;;15.00;99.90;;;;;;4979689;28;20232;-95
2023/06/11 03:54:14;;;;;;;5.03;4.53;;;14.90;99.90;;;;;;4975737;28;20234;-91
2023/06/11 03:56:46;;;;;;;5.77;4.90;;;14.90;99.90;;;;;;4966896;28;20211;-90
2023/06/11 03:59:17;;;;;;;5.73;5.20;;;14.80;99.90;;;;;;4974478;28;20203;-88
2023/06/11 04:01:51;;;;;;;5.90;4.77;;;14.90;99.90;;;;;;4971563;28;20657;-89
2023/06/11 04:04:22;;;;;;;7.17;4.70;;;14.90;99.90;;;;;;4971478;28;20250;-89
2023/06/11 04:06:53;;;;;;;6.47;5.20;;;14.90;99.90;;;;;;4955688;28;20217;-89
2023/06/11 04:09:25;;;;;;;5.20;4.70;;;14.80;99.90;;;;;;4974084;28;20257;-90
2023/06/11 04:12:10;;;;;;;5.43;4.80;;;14.80;99.90;;;;;;4968077;28;20231;-95
2023/06/11 04:17:51;;;;;;;5.80;5.30;;;14.80;99.90;;;;;;5172878;23;20410;-92
2023/06/11 04:20:23;;;;;;;6.10;5.43;;;14.80;99.90;;;;;;4954689;29;20211;-92
2023/06/11 04:22:55;;;;;;;6.57;5.97;;;14.80;99.90;;;;;;4956314;29;20225;-92
2023/06/11 04:25:26;;;;;;;6.07;5.30;;;14.90;99.90;;;;;;4957646;28;20214;-93
2023/06/11 04:27:58;;;;;;;6.13;5.53;;;14.80;99.90;;;;;;4961521;28;20726;-92
2023/06/11 04:30:31;;;;;;;5.23;4.83;;;14.80;99.90;;;;;;4952910;28;20646;-91
2023/06/11 04:33:05;;;;;;;5.87;5.37;;;14.80;99.90;;;;;;4954041;28;20262;-91
2023/06/11 04:35:37;;;;;;;9.63;5.40;;;14.70;99.90;;;;;;4933817;29;20294;-91
2023/06/11 04:38:09;;;;;;;4.93;4.23;;;14.70;99.90;;;;;;4956899;29;20227;-92
2023/06/11 04:40:40;;;;;;;5.97;4.93;;;14.70;99.90;;;;;;4954464;29;20209;-92
2023/06/11 04:43:12;;;;;;;4.97;4.57;;;14.60;99.90;;;;;;4946564;29;20286;-92
2023/06/11 04:45:43;;;;;;;5.30;4.90;;;14.50;99.90;;;;;;4957099;29;20239;-92
2023/06/11 04:48:21;;;;;;;5.03;4.53;;;14.60;99.90;;;;;;4946557;29;20307;-91
2023/06/11 04:50:52;;;;;;;5.00;4.50;;;14.60;99.90;;;;;;4957237;28;20704;-91
2023/06/11 04:53:24;;;;;;;4.77;4.37;;;14.60;99.90;;;;;;4956392;29;20573;-92
2023/06/11 04:55:56;;;;;;;4.93;4.43;;;14.60;99.90;;;;;;4938900;29;20291;-92
2023/06/11 04:58:27;;;;;;;5.03;4.63;;;14.50;99.90;;;;;;4952528;29;20219;-91
2023/06/11 05:01:00;;;;;;;4.43;4.03;;;14.40;99.90;;;;;;4937706;29;20216;-90
2023/06/11 05:03:36;;;;;;;5.63;4.40;;;14.40;99.90;;;;;;4948752;29;20220;-91
2023/06/11 05:06:08;;;;;;;4.40;4.03;;;14.30;99.90;;;;;;4956255;28;20686;-91
2023/06/11 05:08:39;;;;;;;5.80;4.07;;;14.30;99.90;;;;;;4954545;29;20278;-91
2023/06/11 05:11:11;;;;;;;4.93;4.53;;;14.30;99.90;;;;;;4954126;28;20673;-90
2023/06/11 05:13:43;;;;;;;5.03;4.53;;;14.30;99.90;;;;;;4945859;29;20232;-91
2023/06/11 05:16:14;;;;;;;4.97;4.57;;;14.30;99.90;;;;;;4956131;29;20218;-91
2023/06/11 05:18:47;;;;;;;5.10;4.60;;;14.30;99.90;;;;;;4955432;29;20227;-91
2023/06/11 05:21:18;;;;;;;4.90;4.50;;;14.30;99.90;;;;;;4953410;29;20211;-91
2023/06/11 05:23:50;;;;;;;4.73;4.33;;;14.20;99.90;;;;;;4936997;29;20304;-90
2023/06/11 05:26:32;;;;;;;7.73;4.57;;;14.20;99.90;;;;;;4956481;29;20279;-91
2023/06/11 05:29:04;;;;;;;5.10;4.50;;;14.20;99.90;;;;;;4975677;28;20204;-90
2023/06/11 05:31:36;;;;;;;4.80;4.40;;;14.20;99.90;;;;;;4975400;28;20227;-93
2023/06/11 05:34:09;;;;;;;5.07;4.57;;;14.20;99.90;;;;;;4935788;29;20274;-89
2023/06/11 05:36:42;;;;;;;5.00;4.50;;;14.20;99.90;;;;;;4957707;28;20242;-90
2023/06/11 05:39:13;;;;;;;5.00;4.50;;;14.20;99.90;;;;;;4954890;29;20218;-91
2023/06/11 05:41:44;;;;;;;5.83;5.03;;;14.20;99.90;;;;;;4956094;29;20211;-90
2023/06/11 05:44:18;;;;;;;5.00;4.50;;;14.30;99.90;;;;;;4959890;28;20215;-91
2023/06/11 05:46:49;;;;;;;6.03;4.73;;;14.20;99.90;;;;;;4978748;28;20225;-91
2023/06/11 05:49:22;;;;;;;4.80;4.40;;;14.30;99.90;;;;;;4971634;28;20223;-91
2023/06/11 05:51:54;;;;;;;5.87;4.90;;;14.20;99.90;;;;;;4959181;29;20215;-91
2023/06/11 05:54:25;;;;;;;6.20;4.23;;;14.30;99.90;;;;;;4972386;28;20211;-91
2023/06/11 05:56:58;;;;;;;5.07;4.57;;;14.20;99.90;;;;;;4978773;28;20217;-91
2023/06/11 05:59:39;;;;;;;5.27;4.20;;;14.20;99.90;;;;;;4962332;28;20215;-88
2023/06/11 06:02:11;;;;;;;5.53;4.07;;;14.20;99.90;;;;;;4956935;29;20669;-91
2023/06/11 06:04:47;;;;;;;5.10;4.33;;;14.10;99.90;;;;;;4956950;29;20215;-91
2023/06/11 06:07:19;;;;;;;4.20;3.90;;;14.10;99.90;;;;;;4953620;29;20230;-91
2023/06/11 06:09:50;;;;;;;4.60;4.13;;;14.00;99.90;;;;;;4944683;29;20315;-92
2023/06/11 06:12:21;;;;;;;4.87;4.47;;;13.90;99.90;;;;;;4958808;29;20214;-91
2023/06/11 06:14:52;;;;;;;4.50;4.10;;;13.80;99.90;;;;;;4957970;29;20275;-92
2023/06/11 06:17:23;;;;;;;4.90;4.33;;;13.80;99.90;;;;;;4958719;29;20695;-92
2023/06/11 06:19:56;;;;;;;4.70;4.30;;;13.70;99.90;;;;;;4957053;29;20295;-93
2023/06/11 06:22:28;;;;;;;5.50;5.00;;;13.60;99.90;;;;;;4958158;28;20219;-92
2023/06/11 06:25:00;;;;;;;6.90;4.60;;;13.60;99.90;;;;;;4959087;29;20208;-91
2023/06/11 06:27:32;;;;;;;5.73;4.90;;;13.60;99.90;;;;;;4959185;29;20216;-92
2023/06/11 06:30:05;;;;;;;7.70;5.63;;;13.50;99.90;;;;;;4958012;28;20251;-92
2023/06/11 06:32:38;;;;;;;5.20;4.70;;;13.50;99.90;;;;;;4955207;29;20243;-91
2023/06/11 06:35:16;;;;;;;5.27;4.77;;;13.40;99.90;;;;;;4959213;29;20235;-93
2023/06/11 06:37:48;;;;;;;5.60;5.10;;;13.40;99.90;;;;;;4953546;29;20303;-91
2023/06/11 06:40:19;;;;;;;5.97;5.03;;;13.40;99.90;;;;;;4957701;29;20243;-92
2023/06/11 06:42:50;;;;;;;5.80;5.10;;;13.40;99.90;;;;;;4962941;28;20207;-93
2023/06/11 06:45:22;;;;;;;5.43;4.93;;;13.40;99.90;;;;;;4950366;28;20211;-92
2023/06/11 06:47:53;;;;;;;6.07;5.57;;;13.40;99.90;;;;;;4956994;28;20294;-92
2023/06/11 06:50:27;;;;;;;7.03;6.33;;;13.30;99.90;;;;;;4951035;29;20237;-93
2023/06/11 06:52:58;;;;;;;5.80;5.30;;;13.30;99.90;;;;;;4958327;28;20223;-92
2023/06/11 06:55:30;;;;;;;5.93;5.43;;;13.30;99.90;;;;;;4956745;28;20203;-92
2023/06/11 06:58:02;;;;;;;6.40;5.73;;;13.20;99.90;;;;;;4957843;29;20211;-90
2023/06/11 07:00:33;;;;;;;5.57;5.07;;;13.10;99.90;;;;;;4958543;29;20664;-91
2023/06/11 07:03:05;;;;;;;7.03;6.33;;;13.10;99.90;;;;;;4943591;29;20204;-90
2023/06/11 07:05:39;;;;;;;6.27;5.50;;;13.00;99.90;;;;;;4948049;29;20216;-93
2023/06/11 07:08:11;;;;;;;5.40;4.90;;;12.90;99.90;;;;;;4957085;29;20222;-92
2023/06/11 07:10:50;;;;;;;5.33;4.83;;;12.90;99.90;;;;;;4956134;29;20244;-91
2023/06/11 07:13:21;;;;;;;8.37;5.17;;;12.90;99.90;;;;;;4958331;29;20298;-91
2023/06/11 07:15:53;;;;;;;6.37;5.00;;;12.90;99.90;;;;;;4958275;29;20206;-91
2023/06/11 07:18:26;;;;;;;5.17;4.67;;;12.90;99.90;;;;;;4954193;29;20635;-92
2023/06/11 07:21:02;;;;;;;5.40;4.90;;;12.80;99.90;;;;;;4958798;29;20332;-92
2023/06/11 07:23:34;;;;;;;6.30;4.70;;;12.80;99.90;;;;;;4959515;29;20217;-92
2023/06/11 07:26:05;;;;;;;5.80;5.07;;;12.70;99.90;;;;;;4958654;29;20238;-92
2023/06/11 07:28:36;;;;;;;6.17;5.50;;;12.70;99.90;;;;;;4970579;28;20204;-91
2023/06/11 07:31:07;;;;;;;5.63;5.10;;;12.70;99.90;;;;;;4949608;29;20331;-92
2023/06/11 07:33:39;;;;;;;5.03;4.63;;;12.70;99.90;;;;;;4968474;28;20214;-92
2023/06/11 07:36:11;;;;;;;6.03;5.50;;;12.60;99.90;;;;;;4964045;29;20275;-92
2023/06/11 07:38:44;;;;;;;5.40;4.90;;;12.60;99.90;;;;;;4944443;29;20287;-91
2023/06/11 07:41:16;;;;;;;6.20;5.50;;;12.60;99.90;;;;;;4973837;29;20219;-92
2023/06/11 07:43:47;;;;;;;5.43;4.93;;;12.60;99.90;;;;;;4974424;29;20231;-92
2023/06/11 07:46:18;;;;;;;6.47;5.30;;;12.60;99.90;;;;;;4970276;28;20207;-90
2023/06/11 07:48:51;;;;;;;5.77;5.00;;;12.60;99.90;;;;;;4961159;29;20215;-91
2023/06/11 07:51:25;;;;;;;8.10;5.70;;;12.50;99.90;;;;;;4962735;29;20247;-92
2023/06/11 07:54:00;;;;;;;6.43;5.70;;;12.50;99.90;;;;;;4977092;28;20271;-92
2023/06/11 07:56:32;;;;;;;9.00;5.87;;;12.50;99.90;;;;;;4978439;28;20639;-92
2023/06/11 07:59:03;;;;;;;7.97;5.33;;;12.40;99.90;;;;;;4958826;29;20218;-91
2023/06/11 08:01:34;;;;;;;6.20;5.63;;;12.40;99.90;;;;;;4965739;28;20667;-92
2023/06/11 08:04:06;;;;;;;5.93;5.33;;;12.40;99.90;;;;;;4959232;28;20732;-92
2023/06/11 08:06:39;;;;;;;7.23;6.30;;;12.40;99.90;;;;;;4965570;28;20213;-92
2023/06/11 08:09:10;;;;;;;7.27;6.57;;;12.30;99.90;;;;;;4927921;29;20235;-91
2023/06/11 08:11:42;;;;;;;7.00;6.30;;;12.40;99.90;;;;;;4962888;29;20235;-90
2023/06/11 08:14:13;;;;;;;7.20;6.50;;;12.30;99.90;;;;;;4974234;28;20218;-91
2023/06/11 08:16:45;;;;;;;7.63;6.83;;;12.30;99.90;;;;;;4964160;29;20211;-91
2023/06/11 08:19:17;;;;;;;8.73;6.87;;;12.30;99.90;;;;;;4959512;29;20215;-91
2023/06/11 08:21:50;;;;;;;9.07;7.43;;;12.30;99.90;;;;;;4957744;29;20211;-90
2023/06/11 08:24:22;;;;;;;8.10;7.30;;;12.30;99.90;;;;;;4941773;29;20645;-92
2023/06/11 08:26:54;;;;;;;8.50;7.70;;;12.30;99.90;;;;;;4955486;29;20211;-92
2023/06/11 08:29:25;;;;;;;8.63;7.57;;;12.30;99.90;;;;;;4955913;29;20267;-92
2023/06/11 08:31:56;;;;;;;8.73;7.67;;;12.30;99.90;;;;;;4963629;28;20241;-92
2023/06/11 08:34:28;;;;;;;8.83;7.93;;;12.30;99.90;;;;;;4956691;29;20214;-91
2023/06/11 08:37:03;;;;;;;10.07;8.17;;;12.30;99.90;;;;;;4957374;29;20331;-91
2023/06/11 08:39:34;;;;;;;9.17;8.23;;;12.30;99.90;;;;;;4956926;29;20218;-93
2023/06/11 08:42:07;;;;;;;9.60;8.60;;;12.30;99.90;;;;;;4953936;29;20201;-92
2023/06/11 08:44:39;;;;;;;9.70;8.70;;;12.30;99.90;;;;;;4955812;29;20207;-92
2023/06/11 08:47:11;;;;;;;10.57;8.70;;;12.40;99.90;;;;;;4937735;29;20215;-93
2023/06/11 08:49:47;;;;;;;9.80;8.80;;;12.40;99.90;;;;;;4954796;28;20220;-91
2023/06/11 08:52:25;;;;;;;9.10;8.03;;;12.40;99.90;;;;;;4956232;29;20258;-93
2023/06/11 08:54:57;;;;;;;8.80;8.00;;;12.50;99.90;;;;;;4957211;29;20211;-92
2023/06/11 08:57:28;;;;;;;9.93;9.00;;;12.50;99.90;;;;;;4962598;28;20237;-92
2023/06/11 09:00:00;;;;;;;12.27;9.07;;;12.50;99.90;;;;;;4956155;29;20243;-92
2023/06/11 09:02:31;;;;;;;9.97;8.93;;;12.50;99.90;;;;;;4956797;29;20295;-93
2023/06/11 09:05:03;;;;;;;10.43;8.80;;;12.50;99.90;;;;;;4956544;29;20311;-92
2023/06/11 09:07:37;;;;;;;11.00;9.50;;;12.60;99.90;;;;;;4958741;28;20207;-93
2023/06/11 09:10:10;;;;;;;10.67;9.63;;;12.60;99.90;;;;;;4966105;28;20829;-93
2023/06/11 09:12:42;;;;;;;10.40;9.30;;;12.60;99.90;;;;;;4945907;29;20235;-92
2023/06/11 09:15:14;;;;;;;10.73;9.30;;;12.50;99.90;;;;;;4952066;29;20210;-91
2023/06/11 09:17:47;;;;;;;11.50;9.13;;;12.60;99.90;;;;;;4955308;28;20263;-92
2023/06/11 09:20:20;;;;;;;10.10;8.87;;;12.60;99.90;;;;;;4960649;29;20215;-92
2023/06/11 09:22:55;;;;;;;10.73;9.73;;;12.60;99.90;;;;;;4960729;29;20216;-91
2023/06/11 09:25:33;;;;;;;11.53;10.17;;;12.60;99.90;;;;;;4970193;28;20214;-93
2023/06/11 09:28:08;;;;;;;11.33;10.13;;;12.70;99.90;;;;;;4972997;28;20217;-91
2023/06/11 09:30:40;;;;;;;10.67;9.60;;;12.70;99.90;;;;;;4960828;29;20237;-93
2023/06/11 09:33:18;;;;;;;11.10;9.50;;;12.70;99.90;;;;;;4960837;29;20228;-90
2023/06/11 09:35:50;;;;;;;12.70;9.97;;;12.70;99.90;;;;;;4960701;29;20727;-91
2023/06/11 09:38:24;;;;;;;11.30;10.17;;;12.70;99.90;;;;;;4978570;28;20192;-91
2023/06/11 09:40:57;;;;;;;11.53;10.27;;;12.70;99.90;;;;;;4977973;28;20670;-91
2023/06/11 09:43:29;;;;;;;14.47;9.90;;;12.80;99.90;;;;;;4963301;28;20247;-92
2023/06/11 09:46:01;;;;;;;11.53;9.57;;;12.80;99.90;;;;;;4961478;29;20211;-91
2023/06/11 09:48:33;;;;;;;11.40;10.20;;;12.90;99.90;;;;;;4959244;29;20298;-92
2023/06/11 09:51:05;;;;;;;11.23;10.07;;;12.90;99.90;;;;;;4958911;29;20230;-94
2023/06/11 09:53:39;;;;;;;11.10;10.00;;;12.90;99.90;;;;;;4957294;29;20204;-93
2023/06/11 09:56:11;;;;;;;10.37;9.37;;;13.00;99.90;;;;;;4956007;29;20346;-91
2023/06/11 09:58:43;;;;;;;11.50;9.83;;;13.00;99.90;;;;;;4958527;29;20790;-91
2023/06/11 10:01:14;;;;;;;10.93;9.83;;;13.10;99.90;;;;;;4953933;29;20215;-91
2023/06/11 10:03:46;;;;;;;11.40;10.13;;;13.10;99.90;;;;;;4958949;29;20212;-92
2023/06/11 10:06:22;;;;;;;11.37;10.27;;;13.10;99.90;;;;;;4956504;29;20211;-92
2023/06/11 10:08:58;;;;;;;11.00;9.73;;;13.10;99.90;;;;;;4939674;29;20246;-91
2023/06/11 10:11:38;;;;;;;10.53;9.53;;;13.10;99.90;;;;;;4957436;29;20283;-91
2023/06/11 10:14:13;;;;;;;11.70;10.43;;;13.10;99.90;;;;;;4959924;29;20223;-92
2023/06/11 10:16:51;;;;;;;11.20;9.77;;;13.20;99.90;;;;;;4959091;29;20226;-91
2023/06/11 10:19:26;;;;;;;10.47;9.43;;;13.20;99.90;;;;;;4959056;28;20699;-91
2023/06/11 10:22:03;;;;;;;11.17;9.73;;;13.20;99.90;;;;;;4947697;29;20208;-92
2023/06/11 10:24:37;;;;;;;11.00;9.90;;;13.20;99.90;;;;;;4940199;29;20231;-92
2023/06/11 10:27:10;;;;;;;10.57;9.57;;;13.20;99.90;;;;;;4941810;29;20596;-91
2023/06/11 10:29:43;;;;;;;11.30;10.20;;;13.20;99.90;;;;;;4965691;28;20203;-92
2023/06/11 10:32:19;;;;;;;10.43;9.43;;;13.20;99.90;;;;;;4957856;29;20231;-92
2023/06/11 10:34:55;;;;;;;11.00;9.80;;;13.20;99.90;;;;;;4957896;29;20235;-92
2023/06/11 10:37:32;;;;;;;10.67;9.67;;;13.20;99.90;;;;;;4950982;29;20712;-92
2023/06/11 10:40:07;;;;;;;10.47;9.37;;;13.20;99.90;;;;;;4949509;29;20215;-91
2023/06/11 10:42:42;;;;;;;10.27;9.17;;;13.30;99.90;;;;;;4957195;28;20259;-92
2023/06/11 10:45:15;;;;;;;11.03;9.97;;;13.30;99.90;;;;;;4954417;29;20240;-92
2023/06/11 10:47:49;;;;;;;11.60;10.43;;;13.30;99.90;;;;;;4959639;28;20230;-91
2023/06/11 10:50:31;;;;;;;10.07;9.07;;;13.30;99.90;;;;;;4965132;28;20198;-92
2023/06/11 10:53:06;;;;;;;10.87;9.83;;;13.30;99.90;;;;;;4959819;29;20239;-93
2023/06/11 10:55:44;;;;;;;13.63;10.20;;;13.30;99.90;;;;;;4959146;28;20218;-91
2023/06/11 10:58:24;;;;;;;10.77;9.60;;;13.30;99.90;;;;;;4957038;29;20218;-93
2023/06/11 11:00:56;;;;;;;11.43;10.33;;;13.30;99.90;;;;;;4960370;28;20215;-93
2023/06/11 11:03:32;;;;;;;11.53;10.40;;;13.40;99.90;;;;;;4962884;28;20291;-92
2023/06/11 11:06:04;;;;;;;12.23;10.27;;;13.40;99.90;;;;;;4958650;29;20211;-92
2023/06/11 11:08:36;;;;;;;10.57;9.57;;;13.40;99.90;;;;;;4957737;29;20287;-92
2023/06/11 11:11:10;;;;;;;10.53;9.43;;;13.40;99.90;;;;;;4957912;29;20227;-93
2023/06/11 11:13:41;;;;;;;10.50;9.33;;;13.40;99.90;;;;;;4953832;29;20219;-93
2023/06/11 11:16:12;;;;;;;11.20;10.00;;;13.40;99.90;;;;;;4957970;29;20278;-92
2023/06/11 11:18:43;;;;;;;11.23;10.00;;;13.40;99.90;;;;;;4956940;29;20223;-92
2023/06/11 11:21:14;;;;;;;12.03;9.83;;;13.40;99.90;;;;;;4957489;29;20227;-93
2023/06/11 11:23:49;;;;;;;11.30;10.20;;;13.40;99.90;;;;;;4958003;29;20713;-92
2023/06/11 11:26:23;;;;;;;11.33;10.23;;;13.40;99.90;;;;;;4958083;29;20254;-90
2023/06/11 11:28:54;;;;;;;11.23;9.60;;;13.40;99.90;;;;;;4971829;28;20289;-91
2023/06/11 11:31:25;;;;;;;11.43;10.23;;;13.40;99.90;;;;;;4938528;29;20208;-91
2023/06/11 11:33:58;;;;;;;11.63;10.53;;;13.40;99.90;;;;;;4939018;29;20216;-91
2023/06/11 11:36:29;;;;;;;12.70;11.40;;;13.40;99.90;;;;;;4951767;29;20274;-93
2023/06/11 11:39:11;;;;;;;12.90;11.57;;;13.40;99.90;;;;;;4957672;29;20280;-91
2023/06/11 11:41:50;;;;;;;14.03;11.57;;;13.50;99.90;;;;;;4968429;28;20192;-90
2023/06/11 11:44:22;;;;;;;12.37;11.23;;;13.50;99.90;;;;;;4978932;28;20191;-91
2023/06/11 11:46:58;;;;;;;13.27;11.53;;;13.50;99.90;;;;;;4974014;28;20323;-91
2023/06/11 11:49:34;;;;;;;13.47;11.17;;;13.50;99.90;;;;;;4958963;29;20284;-92
2023/06/11 11:52:07;;;;;;;12.47;10.70;;;13.50;99.90;;;;;;4940196;29;20245;-92
2023/06/11 11:54:44;;;;;;;11.57;10.37;;;13.50;99.90;;;;;;4953465;29;20228;-93
2023/06/11 11:57:21;;;;;;;12.30;10.90;;;13.50;99.90;;;;;;4971127;28;20274;-92
2023/06/11 11:59:54;;;;;;;11.20;10.10;;;13.50;99.90;;;;;;4976714;28;20292;-93
2023/06/11 12:02:28;;;;;;;11.93;10.83;;;13.50;99.90;;;;;;4977972;28;20241;-93
2023/06/11 12:05:01;;;;;;;11.40;10.30;;;13.50;99.90;;;;;;4967811;28;20222;-93
2023/06/11 12:07:32;;;;;;;11.20;9.80;;;13.50;99.90;;;;;;4957644;29;20324;-92
2023/06/11 12:10:06;;;;;;;12.27;10.37;;;13.50;99.90;;;;;;4957492;29;20676;-93
2023/06/11 12:12:39;;;;;;;10.23;9.27;;;13.50;99.90;;;;;;4958304;29;20303;-92
2023/06/11 12:15:12;;;;;;;10.00;9.10;;;13.50;99.90;;;;;;4957981;28;20238;-92
2023/06/11 12:17:46;;;;;;;10.90;8.83;;;13.50;99.90;;;;;;4957257;28;20237;-93
2023/06/11 12:20:18;;;;;;;9.40;8.50;;;13.50;99.90;;;;;;4957773;29;20215;-92
2023/06/11 12:22:50;;;;;;;10.20;9.17;;;13.60;99.90;;;;;;4961165;29;20208;-93
2023/06/11 12:25:22;;;;;;;10.93;9.73;;;13.50;99.90;;;;;;4963183;29;20207;-91
2023/06/11 12:27:55;;;;;;;11.63;8.70;;;13.50;99.90;;;;;;4945732;29;20550;-92
2023/06/11 12:30:27;;;;;;;9.97;8.40;;;13.50;99.90;;;;;;4953358;29;20573;-91
2023/06/11 12:32:58;;;;;;;8.07;7.37;;;13.50;99.90;;;;;;4970097;28;20231;-92
2023/06/11 12:35:31;;;;;;;8.00;7.27;;;13.60;99.90;;;;;;4957216;29;20215;-91
2023/06/11 12:38:03;;;;;;;8.37;7.57;;;13.60;99.90;;;;;;4957032;29;20306;-92
2023/06/11 12:40:35;;;;;;;10.83;7.70;;;13.50;99.90;;;;;;4957759;28;20288;-92
2023/06/11 12:43:08;;;;;;;8.00;7.27;;;13.50;99.90;;;;;;4937778;29;20239;-92
2023/06/11 12:45:39;;;;;;;8.13;7.43;;;13.60;99.90;;;;;;4944533;29;20215;-92
2023/06/11 12:48:11;;;;;;;8.53;7.23;;;13.60;99.90;;;;;;4957891;29;20231;-91
2023/06/11 12:50:44;;;;;;;7.63;6.97;;;13.60;99.90;;;;;;4957770;29;20207;-91
2023/06/11 12:53:15;;;;;;;7.27;6.50;;;13.50;99.90;;;;;;4958285;28;20235;-91
2023/06/11 12:55:47;;;;;;;7.40;6.80;;;13.50;99.90;;;;;;4960842;29;20302;-92
2023/06/11 12:58:19;;;;;;;9.13;7.00;;;13.60;99.90;;;;;;4972265;28;20222;-91
2023/06/11 13:00:51;;;;;;;6.60;6.00;;;13.60;99.90;;;;;;4960437;29;20207;-93
2023/06/11 13:03:23;;;;;;;7.20;6.60;;;13.60;99.90;;;;;;4961757;29;20215;-93
2023/06/11 13:05:54;;;;;;;6.67;6.00;;;13.60;99.90;;;;;;4949694;29;20262;-94
2023/06/11 13:08:26;;;;;;;6.10;5.60;;;13.70;99.90;;;;;;4960869;29;20219;-93
2023/06/11 13:10:58;;;;;;;6.93;6.33;;;13.70;99.90;;;;;;4957251;29;20290;-91
2023/06/11 13:13:31;;;;;;;6.57;5.87;;;13.70;99.90;;;;;;4970038;29;20238;-91
2023/06/11 13:16:02;;;;;;;6.30;5.80;;;13.60;99.90;;;;;;4968827;28;20191;-93